Time;durP1;ratioP1;P1;durP2;ratioP2;P2;SDS_P1;SDS_P2;PMS_P1;PMS_P2;Temp;Humidity;BMP_temperature;BMP_pressure;BME280_temperature;BME280_humidity;BME280_pressure;Samples;Min_cycle;Max_cycle;Signal;HPM_P1;HPM_P2
2022/03/02 00:00:54;;;;;;;19.90;9.60;;;-0.20;99.90;;;;;;4929925;29;19966;-86
2022/03/02 00:03:20;;;;;;;18.40;10.13;;;-0.10;99.90;;;;;;4945381;29;20083;-85
2022/03/02 00:05:45;;;;;;;16.80;9.05;;;-0.10;99.90;;;;;;4913537;29;20058;-85
2022/03/02 00:08:11;;;;;;;;;;;-0.10;99.90;;;;;;4946175;29;20048;-86
2022/03/02 00:10:38;;;;;;;16.85;9.65;;;0.00;99.90;;;;;;4914692;29;20090;-85
2022/03/02 00:13:04;;;;;;;;;;;0.10;99.90;;;;;;4946398;29;20183;-85
2022/03/02 00:15:30;;;;;;;19.50;9.20;;;0.20;99.90;;;;;;4929743;29;20387;-85
2022/03/02 00:17:56;;;;;;;14.60;8.50;;;0.20;99.90;;;;;;4929940;29;20057;-85
2022/03/02 00:20:22;;;;;;;16.50;9.00;;;0.20;99.90;;;;;;4945481;29;20070;-85
2022/03/02 00:22:52;;;;;;;19.20;9.70;;;0.30;99.90;;;;;;4946250;29;20076;-86
2022/03/02 00:25:18;;;;;;;;;;;0.30;99.90;;;;;;4946216;29;20072;-86
2022/03/02 00:27:44;;;;;;;18.30;9.50;;;0.30;99.90;;;;;;4913684;29;20189;-85
2022/03/02 00:30:10;;;;;;;;;;;0.20;99.90;;;;;;4929808;29;20096;-85
2022/03/02 00:32:36;;;;;;;;;;;0.20;99.90;;;;;;4913569;29;20040;-85
2022/03/02 00:35:02;;;;;;;;;;;0.30;99.90;;;;;;4913579;29;20045;-85
2022/03/02 00:37:28;;;;;;;19.10;9.20;;;0.20;99.90;;;;;;4913178;29;20092;-86
2022/03/02 00:39:53;;;;;;;;;;;0.20;99.90;;;;;;4929112;29;20080;-84
2022/03/02 00:42:19;;;;;;;;;;;0.40;99.90;;;;;;4948121;29;20638;-85
2022/03/02 00:44:45;;;;;;;;;;;0.30;99.90;;;;;;4949230;29;20128;-86
2022/03/02 00:47:10;;;;;;;;;;;0.20;99.90;;;;;;4916518;29;20143;-86
2022/03/02 00:49:36;;;;;;;;;;;0.20;99.90;;;;;;4917418;29;20413;-85
2022/03/02 00:52:03;;;;;;;;;;;0.30;99.90;;;;;;4933249;29;20048;-85
2022/03/02 00:54:31;;;;;;;;;;;0.30;99.90;;;;;;4932865;29;20136;-86
2022/03/02 00:56:56;;;;;;;;;;;0.30;99.90;;;;;;4932876;29;20048;-86
2022/03/02 00:59:22;;;;;;;;;;;0.20;99.90;;;;;;4918461;29;20398;-85
2022/03/02 01:01:48;;;;;;;;;;;0.20;99.90;;;;;;4934407;29;20037;-85
2022/03/02 01:04:14;;;;;;;;;;;0.10;99.90;;;;;;4918792;29;20482;-86
2022/03/02 01:06:40;;;;;;;;;;;0.20;99.90;;;;;;4933580;29;20055;-85
2022/03/02 01:09:05;;;;;;;;;;;0.20;99.90;;;;;;4916910;29;20041;-86
2022/03/02 01:11:31;;;;;;;;;;;0.10;99.90;;;;;;4931327;29;20112;-86
2022/03/02 01:13:57;;;;;;;;;;;0.00;99.90;;;;;;4953830;29;20056;-87
2022/03/02 01:16:22;;;;;;;;;;;-0.10;99.90;;;;;;4937946;29;20072;-85
2022/03/02 01:18:48;;;;;;;;;;;-0.20;99.90;;;;;;4940258;29;20041;-84
2022/03/02 01:21:15;;;;;;;;;;;-0.20;99.90;;;;;;4940591;29;20036;-86
2022/03/02 01:23:40;;;;;;;;;;;-0.20;99.90;;;;;;4939203;29;20068;-84
2022/03/02 01:26:06;;;;;;;;;;;-0.50;99.90;;;;;;4929168;29;20457;-86
2022/03/02 01:28:32;;;;;;;;;;;-0.50;99.90;;;;;;4919680;29;20438;-85
2022/03/02 01:30:57;;;;;;;;;;;-0.70;99.90;;;;;;4920375;29;20872;-85
2022/03/02 01:33:23;;;;;;;;;;;-0.80;99.90;;;;;;4937768;29;20040;-85
2022/03/02 01:35:49;;;;;;;;;;;-0.90;99.90;;;;;;4934457;29;20352;-84
2022/03/02 01:38:14;;;;;;;;;;;-1.00;99.90;;;;;;4929652;29;20056;-84
2022/03/02 01:40:40;;;;;;;;;;;-1.00;99.90;;;;;;4919980;29;20049;-85
2022/03/02 01:43:06;;;;;;;;;;;-1.10;99.90;;;;;;4947873;29;20044;-83
2022/03/02 01:45:32;;;;;;;;;;;-1.10;99.90;;;;;;4916105;29;20584;-84
2022/03/02 01:47:58;;;;;;;;;;;-1.20;99.90;;;;;;4916061;29;20120;-85
2022/03/02 01:50:24;;;;;;;;;;;-1.30;99.90;;;;;;4916200;29;20060;-85
2022/03/02 01:52:49;;;;;;;;;;;-1.50;99.90;;;;;;4915064;29;20048;-86
2022/03/02 01:55:16;;;;;;;;;;;-1.60;99.90;;;;;;4915948;29;20144;-85
2022/03/02 01:57:42;;;;;;;;;;;-1.70;99.90;;;;;;4930466;29;20147;-85
2022/03/02 02:00:09;;;;;;;;;;;-1.80;99.90;;;;;;4930598;29;20044;-85
2022/03/02 02:02:35;;;;;;;;;;;-1.80;99.90;;;;;;4946535;29;20060;-86
2022/03/02 02:05:00;;;;;;;;;;;-1.90;99.90;;;;;;4915246;29;20136;-85
2022/03/02 02:07:27;;;;;;;;;;;-2.00;99.90;;;;;;4930941;29;20212;-85
2022/03/02 02:09:55;;;;;;;;;;;-2.00;99.90;;;;;;4914633;29;20140;-86
2022/03/02 02:12:21;;;;;;;;;;;-2.00;99.90;;;;;;4914931;29;20062;-86
2022/03/02 02:14:46;;;;;;;;;;;-2.00;99.90;;;;;;4930989;29;20390;-86
2022/03/02 02:17:12;;;;;;;;;;;-2.20;99.90;;;;;;4915442;29;20084;-85
2022/03/02 02:19:38;;;;;;;24.80;10.90;;;-2.20;99.90;;;;;;4914927;29;20406;-85
2022/03/02 02:22:04;;;;;;;19.00;10.20;;;-2.20;99.90;;;;;;4914779;29;20065;-85
2022/03/02 02:24:29;;;;;;;22.70;10.50;;;-2.30;99.90;;;;;;4946700;29;20056;-86
2022/03/02 02:26:55;;;;;;;20.90;10.30;;;-2.30;99.90;;;;;;4915105;29;19910;-85
2022/03/02 02:29:25;;;;;;;24.70;10.23;;;-2.40;99.90;;;;;;4914977;29;20061;-86
2022/03/02 02:31:51;;;;;;;20.80;10.05;;;-2.40;99.90;;;;;;4914805;29;20112;-85
2022/03/02 02:34:17;;;;;;;20.20;10.10;;;-2.40;99.90;;;;;;4946292;29;20531;-85
2022/03/02 02:36:43;;;;;;;19.45;9.15;;;-2.30;99.90;;;;;;4914791;29;20068;-85
2022/03/02 02:39:10;;;;;;;20.20;9.70;;;-2.20;99.90;;;;;;4930233;29;20269;-85
2022/03/02 02:41:37;;;;;;;;;;;-2.10;99.90;;;;;;4946437;29;20124;-85
2022/03/02 02:44:02;;;;;;;16.40;9.40;;;-2.00;99.90;;;;;;4913611;29;20084;-86
2022/03/02 02:46:30;;;;;;;19.50;10.10;;;-1.90;99.90;;;;;;4945491;29;20096;-85
2022/03/02 02:48:55;;;;;;;;;;;-1.90;99.90;;;;;;4915838;29;20402;-86
2022/03/02 02:51:21;;;;;;;18.20;9.45;;;-1.90;99.90;;;;;;4915290;29;20048;-85
2022/03/02 02:53:47;;;;;;;;;;;-2.00;99.90;;;;;;4916214;29;19911;-84
2022/03/02 02:56:13;;;;;;;19.10;9.60;;;-2.00;99.90;;;;;;4946355;29;20495;-85
2022/03/02 02:58:39;;;;;;;;;;;-2.00;99.90;;;;;;4946773;29;20056;-85
2022/03/02 03:01:06;;;;;;;19.80;10.40;;;-1.90;99.90;;;;;;4930511;29;20048;-85
2022/03/02 03:03:33;;;;;;;;;;;-1.80;99.90;;;;;;4914212;29;20067;-86
2022/03/02 03:05:59;;;;;;;;;;;-1.80;99.90;;;;;;4915894;29;20063;-85
2022/03/02 03:08:25;;;;;;;20.35;9.25;;;-1.80;99.90;;;;;;4914642;29;20048;-85
2022/03/02 03:10:50;;;;;;;20.60;9.50;;;-1.70;99.90;;;;;;4946471;29;20063;-84
2022/03/02 03:13:17;;;;;;;19.45;9.10;;;-1.80;99.90;;;;;;4930596;29;20347;-86
2022/03/02 03:15:44;;;;;;;18.50;9.40;;;-1.80;99.90;;;;;;4946294;29;20053;-84
2022/03/02 03:18:11;;;;;;;20.00;9.30;;;-1.80;99.90;;;;;;4955678;29;20123;-84
2022/03/02 03:20:38;;;;;;;;;;;-1.80;99.90;;;;;;4938026;29;20144;-85
2022/03/02 03:23:05;;;;;;;;;;;-1.80;99.90;;;;;;4915478;29;20140;-85
2022/03/02 03:25:31;;;;;;;25.20;10.50;;;-1.80;99.90;;;;;;4931906;29;20607;-85
2022/03/02 03:27:57;;;;;;;;;;;-1.80;99.90;;;;;;4914607;29;20079;-85
2022/03/02 03:30:24;;;;;;;;;;;-1.80;99.90;;;;;;4915293;29;20045;-85
2022/03/02 03:32:50;;;;;;;23.00;9.40;;;-1.80;99.90;;;;;;4914546;29;20056;-84
2022/03/02 03:35:18;;;;;;;17.60;9.25;;;-1.90;99.90;;;;;;4946398;29;20119;-85
2022/03/02 03:37:44;;;;;;;;;;;-1.80;99.90;;;;;;4945897;29;20719;-85
2022/03/02 03:40:11;;;;;;;;;;;-1.80;99.90;;;;;;4930202;29;20506;-85
2022/03/02 03:42:37;;;;;;;;;;;-1.90;99.90;;;;;;4914271;29;20395;-84
2022/03/02 03:45:05;;;;;;;;;;;-2.00;99.90;;;;;;4914063;29;20131;-85
2022/03/02 03:47:30;;;;;;;;;;;-1.90;99.90;;;;;;4914486;29;20052;-86
2022/03/02 03:49:56;;;;;;;;;;;-1.90;99.90;;;;;;4914323;29;20073;-85
2022/03/02 03:52:22;;;;;;;20.20;10.30;;;-1.90;99.90;;;;;;4913888;29;20100;-85
2022/03/02 03:54:47;;;;;;;15.60;9.30;;;-1.80;99.90;;;;;;4914233;29;20041;-85
2022/03/02 03:57:13;;;;;;;22.80;9.80;;;-1.80;99.90;;;;;;4945604;29;20072;-85
2022/03/02 03:59:40;;;;;;;20.70;9.30;;;-1.80;99.90;;;;;;4945880;29;19954;-85
2022/03/02 04:02:05;;;;;;;;;;;-1.80;99.90;;;;;;4945887;29;20073;-85
2022/03/02 04:04:31;;;;;;;;;;;-1.90;99.90;;;;;;4914296;29;20049;-85
2022/03/02 04:06:57;;;;;;;27.60;14.30;;;-1.90;99.90;;;;;;4913971;29;20048;-85
2022/03/02 04:09:22;;;;;;;;;;;-1.90;99.90;;;;;;4913816;29;19918;-85
2022/03/02 04:11:48;;;;;;;;;;;-1.90;99.90;;;;;;4914383;29;20043;-85
2022/03/02 04:14:14;;;;;;;;;;;-2.00;99.90;;;;;;4916000;29;20097;-84
2022/03/02 04:16:40;;;;;;;;;;;-2.00;99.90;;;;;;4936093;29;20047;-85
2022/03/02 04:19:05;;;;;;;;;;;-2.00;99.90;;;;;;4971509;28;20033;-85
2022/03/02 04:21:31;;;;;;;;;;;-2.00;99.90;;;;;;4920740;29;20163;-84
2022/03/02 04:23:57;;;;;;;;;;;-1.90;99.90;;;;;;4917910;29;20035;-85
2022/03/02 04:26:23;;;;;;;;;;;-1.90;99.90;;;;;;4934078;29;20098;-85
2022/03/02 04:28:49;;;;;;;;;;;-1.90;99.90;;;;;;4933985;29;20157;-85
2022/03/02 04:31:15;;;;;;;22.50;11.00;;;-2.00;99.90;;;;;;4918695;29;20502;-85
2022/03/02 04:33:41;;;;;;;;;;;-1.90;99.90;;;;;;4917885;29;20053;-85
2022/03/02 04:36:07;;;;;;;17.80;10.00;;;-1.90;99.90;;;;;;4949748;29;20101;-85
2022/03/02 04:38:33;;;;;;;18.30;10.00;;;-1.90;99.90;;;;;;4917338;29;20049;-85
2022/03/02 04:40:59;;;;;;;19.40;8.80;;;-1.90;99.90;;;;;;4919271;29;20445;-84
2022/03/02 04:43:25;;;;;;;;;;;-1.90;99.90;;;;;;4933073;29;20062;-84
2022/03/02 04:45:51;;;;;;;18.20;10.20;;;-2.00;99.90;;;;;;4917321;29;20056;-84
2022/03/02 04:48:16;;;;;;;;;;;-2.00;99.90;;;;;;4917491;29;20052;-84
2022/03/02 04:50:42;;;;;;;;;;;-2.00;99.90;;;;;;4916686;29;20048;-83
2022/03/02 04:53:08;;;;;;;;;;;-1.90;99.90;;;;;;4917256;29;20091;-84
2022/03/02 04:55:34;;;;;;;;;;;-1.80;99.90;;;;;;4916792;29;20052;-85
2022/03/02 04:58:00;;;;;;;;;;;-1.80;99.90;;;;;;4917466;29;20065;-85
2022/03/02 05:00:25;;;;;;;;;;;-1.80;99.90;;;;;;4933377;29;20112;-86
2022/03/02 05:02:52;;;;;;;;;;;-1.80;99.90;;;;;;4948323;29;20053;-84
2022/03/02 05:05:19;;;;;;;;;;;-1.70;99.90;;;;;;4929608;29;20036;-84
2022/03/02 05:07:45;;;;;;;;;;;-1.70;99.90;;;;;;4932992;29;20052;-84
2022/03/02 05:10:12;;;;;;;;;;;-1.60;99.90;;;;;;4953735;29;20059;-85
2022/03/02 05:12:39;;;;;;;;;;;-1.50;99.90;;;;;;4933944;29;20044;-85
2022/03/02 05:15:05;;;;;;;;;;;-1.30;99.90;;;;;;4917657;29;20486;-84
2022/03/02 05:17:32;;;;;;;20.60;9.20;;;-1.20;99.90;;;;;;4916420;29;20116;-82
2022/03/02 05:19:57;;;;;;;;;;;-1.10;99.90;;;;;;4948388;29;20353;-84
2022/03/02 05:22:23;;;;;;;;;;;-1.00;99.90;;;;;;4916648;29;20050;-84
2022/03/02 05:24:48;;;;;;;;;;;-0.90;99.90;;;;;;4914982;29;20124;-81
2022/03/02 05:27:14;;;;;;;;;;;-0.80;99.90;;;;;;4931061;29;20079;-82
2022/03/02 05:29:40;;;;;;;16.00;8.50;;;-0.70;99.90;;;;;;4931968;29;20411;-83
2022/03/02 05:32:09;;;;;;;;;;;-0.60;99.90;;;;;;4947738;29;20139;-86
2022/03/02 05:34:35;;;;;;;15.80;8.40;;;-0.60;99.90;;;;;;4916607;29;20049;-85
2022/03/02 05:37:01;;;;;;;;;;;-0.50;99.90;;;;;;4932314;29;20528;-85
2022/03/02 05:39:27;;;;;;;;;;;-0.60;99.90;;;;;;4916478;29;20143;-84
2022/03/02 05:41:52;;;;;;;;;;;-0.50;99.90;;;;;;4916447;29;20079;-86
2022/03/02 05:44:18;;;;;;;;;;;-0.50;99.90;;;;;;4916241;29;20557;-86
2022/03/02 05:46:44;;;;;;;;;;;-0.50;99.90;;;;;;4931900;29;20068;-86
2022/03/02 05:49:10;;;;;;;;;;;-0.40;99.90;;;;;;4932075;29;20044;-84
2022/03/02 05:51:36;;;;;;;;;;;-0.40;99.90;;;;;;4915947;29;20107;-86
2022/03/02 05:54:03;;;;;;;;;;;-0.40;99.90;;;;;;4931899;29;20048;-84
2022/03/02 05:56:29;;;;;;;;;;;-0.40;99.90;;;;;;4931521;29;20061;-86
2022/03/02 05:58:55;;;;;;;;;;;-0.30;99.90;;;;;;4914670;29;20058;-85
2022/03/02 06:01:21;;;;;;;;;;;-0.30;99.90;;;;;;4915888;29;20068;-85
2022/03/02 06:03:49;;;;;;;;;;;-0.30;99.90;;;;;;4930679;29;20061;-84
2022/03/02 06:09:43;;;;;;;;;;;-0.30;99.90;;;;;;4916144;29;20102;-86
2022/03/02 06:12:09;;;;;;;;;;;-0.30;99.90;;;;;;4915513;29;20086;-84
2022/03/02 06:14:35;;;;;;;;;;;-0.30;99.90;;;;;;4915397;29;20049;-85
2022/03/02 06:17:01;;;;;;;;;;;-0.30;99.90;;;;;;4946953;29;20056;-84
2022/03/02 06:19:27;;;;;;;;;;;-0.30;99.90;;;;;;4915527;29;20056;-84
2022/03/02 06:21:52;;;;;;;;;;;-0.30;99.90;;;;;;4930840;29;20051;-83
2022/03/02 06:24:18;;;;;;;;;;;-0.30;99.90;;;;;;4946958;29;20036;-82
2022/03/02 06:26:44;;;;;;;;;;;-0.30;99.90;;;;;;4915317;29;20672;-85
2022/03/02 06:29:11;;;;;;;;;;;-0.30;99.90;;;;;;4946749;29;20064;-85
2022/03/02 06:31:37;;;;;;;;;;;-0.30;99.90;;;;;;4947048;29;20131;-85
2022/03/02 06:34:04;;;;;;;;;;;-0.20;99.90;;;;;;4913640;29;20545;-85
2022/03/02 06:36:30;;;;;;;;;;;-0.20;99.90;;;;;;4915010;29;19934;-84
2022/03/02 06:38:56;;;;;;;;;;;-0.20;99.90;;;;;;4915043;29;19915;-83
2022/03/02 06:41:30;;;;;;;;;;;-0.10;99.90;;;;;;4946481;29;20047;-84
2022/03/02 06:44:04;;;;;;;;;;;-0.10;99.90;;;;;;4914965;29;20041;-84
2022/03/02 06:46:30;;;;;;;;;;;0.00;99.90;;;;;;4915517;29;20085;-85
2022/03/02 06:49:00;;;;;;;;;;;0.00;99.90;;;;;;4930550;29;20031;-84
2022/03/02 06:51:28;;;;;;;30.10;13.70;;;0.10;99.90;;;;;;4915164;29;20053;-84
2022/03/02 06:53:55;;;;;;;;;;;0.10;99.90;;;;;;4923753;29;20057;-85
2022/03/02 06:56:21;;;;;;;;;;;0.20;99.90;;;;;;4922008;29;20530;-84
2022/03/02 06:58:51;;;;;;;;;;;0.30;99.90;;;;;;4915209;29;20052;-84
2022/03/02 07:01:36;;;;;;;20.10;10.20;;;0.40;99.90;;;;;;4914753;29;20056;-84
2022/03/02 07:04:02;;;;;;;17.10;9.50;;;0.50;99.90;;;;;;4930392;29;20103;-84
2022/03/02 07:06:29;;;;;;;20.50;11.00;;;0.60;99.90;;;;;;4930739;29;20131;-84
2022/03/02 07:08:55;;;;;;;17.25;10.15;;;0.70;99.90;;;;;;4916738;29;20048;-84
2022/03/02 07:11:22;;;;;;;;;;;0.80;99.90;;;;;;4927519;29;20025;-84
2022/03/02 07:13:49;;;;;;;19.40;10.30;;;1.00;99.90;;;;;;4937456;29;20064;-85
2022/03/02 07:16:16;;;;;;;;;;;1.00;99.90;;;;;;4926248;29;20060;-83
2022/03/02 07:18:41;;;;;;;;;;;1.10;99.90;;;;;;4914915;29;20044;-84
2022/03/02 07:21:11;;;;;;;;;;;1.20;99.90;;;;;;4915110;29;20048;-84
2022/03/02 07:23:41;;;;;;;;;;;1.30;99.90;;;;;;4914776;29;20052;-83
2022/03/02 07:26:07;;;;;;;;;;;1.30;99.90;;;;;;4909835;29;20057;-85
2022/03/02 07:28:36;;;;;;;;;;;1.40;99.90;;;;;;4929593;29;20042;-84
2022/03/02 07:31:02;;;;;;;28.30;15.00;;;1.40;99.90;;;;;;4913321;29;20051;-85
2022/03/02 07:33:32;;;;;;;36.50;16.90;;;1.50;99.90;;;;;;4912339;29;20142;-84
2022/03/02 07:35:58;;;;;;;46.90;19.90;;;1.60;99.90;;;;;;4912814;29;20261;-85
2022/03/02 07:38:25;;;;;;;44.30;19.70;;;1.70;99.90;;;;;;4928421;29;20606;-84
2022/03/02 07:40:52;;;;;;;;;;;1.80;99.90;;;;;;4913694;29;20484;-84
2022/03/02 07:43:20;;;;;;;;;;;1.80;99.90;;;;;;4914160;29;20039;-85
2022/03/02 07:45:46;;;;;;;;;;;1.90;99.90;;;;;;4913818;29;20058;-84
2022/03/02 07:48:12;;;;;;;;;;;2.00;99.90;;;;;;4914312;29;20047;-85
2022/03/02 07:50:41;;;;;;;;;;;2.10;99.90;;;;;;4916917;29;20043;-85
2022/03/02 07:53:07;;;;;;;;;;;2.20;99.90;;;;;;4918016;29;20046;-85
2022/03/02 07:55:36;;;;;;;;;;;2.30;99.90;;;;;;4933523;29;20060;-85
2022/03/02 07:58:03;;;;;;;17.30;10.40;;;2.30;99.90;;;;;;4914575;29;20200;-83
2022/03/02 08:00:30;;;;;;;20.40;10.20;;;2.40;99.90;;;;;;4918114;29;20061;-86
2022/03/02 08:02:59;;;;;;;;;;;2.50;99.90;;;;;;4918089;29;19918;-85
2022/03/02 08:05:25;;;;;;;;;;;2.60;99.90;;;;;;4918170;29;20039;-84
2022/03/02 08:07:51;;;;;;;;;;;2.60;99.90;;;;;;4934641;29;20048;-85
2022/03/02 08:10:18;;;;;;;;;;;2.60;99.90;;;;;;4949298;29;20052;-83
2022/03/02 08:12:44;;;;;;;;;;;2.70;99.90;;;;;;4917536;29;20047;-83
2022/03/02 08:15:10;;;;;;;;;;;2.80;99.90;;;;;;4933758;29;20048;-85
2022/03/02 08:17:36;;;;;;;17.80;10.60;;;2.90;99.90;;;;;;4916865;29;20143;-84
2022/03/02 08:20:03;;;;;;;;;;;2.90;99.90;;;;;;4917854;29;20048;-84
2022/03/02 08:22:29;;;;;;;;;;;2.80;99.90;;;;;;4917354;29;20048;-85
2022/03/02 08:25:07;;;;;;;;;;;2.90;99.90;;;;;;4917218;29;20124;-84
2022/03/02 08:27:33;;;;;;;;;;;2.90;99.90;;;;;;4948850;29;20045;-85
2022/03/02 08:30:00;;;;;;;;;;;3.00;99.90;;;;;;4917105;29;20044;-84
2022/03/02 08:32:27;;;;;;;;;;;3.10;99.90;;;;;;4917021;29;20094;-85
2022/03/02 08:34:53;;;;;;;;;;;3.00;99.90;;;;;;4916754;29;20002;-83
2022/03/02 08:37:19;;;;;;;;;;;2.90;99.90;;;;;;4916635;29;20420;-85
2022/03/02 08:39:45;;;;;;;;;;;2.80;99.90;;;;;;4916379;29;20056;-83
2022/03/02 08:42:11;;;;;;;;;;;2.80;99.90;;;;;;4914518;29;20060;-83
2022/03/02 08:44:37;;;;;;;;;;;2.70;99.90;;;;;;4937026;29;19915;-84
2022/03/02 08:47:03;;;;;;;;;;;2.60;99.90;;;;;;4932459;29;19911;-85
2022/03/02 08:49:33;;;;;;;;;;;2.70;99.90;;;;;;4917766;29;19915;-84
2022/03/02 08:52:01;;;;;;;;;;;2.70;99.90;;;;;;4933333;29;19926;-84
2022/03/02 08:54:27;;;;;;;;;;;2.80;99.90;;;;;;4948629;29;19910;-85
2022/03/02 08:56:53;;;;;;;;;;;2.90;99.90;;;;;;4916916;29;19926;-83
2022/03/02 08:59:19;;;;;;;;;;;3.10;99.90;;;;;;4917466;29;20416;-85
2022/03/02 09:01:49;;;;;;;;;;;3.20;99.90;;;;;;4915819;29;20291;-84
2022/03/02 09:04:18;;;;;;;;;;;3.10;99.90;;;;;;4917091;29;20385;-84
2022/03/02 09:06:45;;;;;;;;;;;3.20;99.90;;;;;;4917946;29;20356;-84
2022/03/02 09:09:11;;;;;;;;;;;3.30;99.90;;;;;;4917143;29;19915;-84
2022/03/02 09:11:38;;;;;;;;;;;3.60;99.90;;;;;;4917901;29;20554;-85
2022/03/02 09:14:04;;;;;;;;;;;4.00;99.90;;;;;;4918798;29;19910;-86
2022/03/02 09:16:30;;;;;;;;;;;4.40;99.90;;;;;;4916992;29;20593;-86
2022/03/02 09:18:55;;;;;;;;;;;4.60;99.90;;;;;;4916743;29;19911;-85
2022/03/02 09:21:22;;;;;;;;;;;4.70;99.90;;;;;;4920062;29;19961;-85
2022/03/02 09:23:47;;;;;;;;;;;4.60;99.90;;;;;;4918379;29;19962;-85
2022/03/02 09:26:17;;;;;;;;;;;4.40;99.90;;;;;;4917201;29;19946;-85
2022/03/02 09:28:46;;;;;;;;;;;4.30;99.90;;;;;;4950062;29;19915;-84
2022/03/02 09:31:14;;;;;;;;;;;4.40;99.90;;;;;;4920138;29;20042;-85
2022/03/02 09:33:40;;;;;;;;;;;4.60;99.90;;;;;;4921191;29;20026;-85
2022/03/02 09:36:09;;;;;;;;;;;4.70;99.90;;;;;;4926607;29;19961;-84
2022/03/02 09:38:36;;;;;;;;;;;5.00;99.90;;;;;;4924296;29;20005;-84
2022/03/02 09:41:09;;;;;;;;;;;5.20;99.90;;;;;;4924508;29;19921;-85
2022/03/02 09:43:35;;;;;;;;;;;5.30;99.80;;;;;;4924135;29;19911;-85
2022/03/02 09:46:03;;;;;;;;;;;5.50;99.70;;;;;;4923354;29;20356;-85
2022/03/02 09:48:30;;;;;;;;;;;5.40;98.80;;;;;;4923298;29;19911;-84
2022/03/02 09:51:00;;;;;;;;;;;5.10;98.70;;;;;;4922643;29;20046;-83
2022/03/02 09:53:27;;;;;;;;;;;4.90;98.90;;;;;;4919132;29;19915;-85
2022/03/02 09:55:59;;;;;;;;;;;4.70;99.80;;;;;;4947754;29;19921;-83
2022/03/02 09:58:25;;;;;;;;;;;4.80;99.60;;;;;;4931793;29;19965;-85
2022/03/02 10:00:53;;;;;;;;;;;5.10;99.90;;;;;;4915240;29;19954;-85
2022/03/02 10:03:19;;;;;;;;;;;5.20;99.90;;;;;;4916423;29;19911;-86
2022/03/02 10:05:48;;;;;;;;;;;5.30;99.90;;;;;;4947869;29;20411;-85
2022/03/02 10:08:17;;;;;;;;;;;5.40;98.50;;;;;;4917101;29;20047;-86
2022/03/02 10:10:43;;;;;;;;;;;5.50;97.80;;;;;;4920622;29;20034;-84
2022/03/02 10:13:11;;;;;;;;;;;5.60;97.00;;;;;;4917081;29;19918;-85
2022/03/02 10:15:39;;;;;;;;;;;5.60;97.50;;;;;;4915978;29;20409;-84
2022/03/02 10:18:06;;;;;;;;;;;5.50;96.50;;;;;;4915039;29;20112;-85
2022/03/02 10:20:34;;;;;;;;;;;5.60;96.40;;;;;;4922197;29;19958;-83
2022/03/02 10:23:21;;;;;;;;;;;5.60;96.10;;;;;;4929817;29;19915;-85
2022/03/02 10:26:02;;;;;;;;;;;5.60;95.50;;;;;;4924852;29;19939;-85
2022/03/02 10:28:29;;;;;;;;;;;5.70;96.70;;;;;;4952667;29;19922;-84
2022/03/02 10:31:07;;;;;;;;;;;5.80;95.50;;;;;;4924835;29;20552;-84
2022/03/02 10:33:36;;;;;;;;;;;5.80;95.50;;;;;;4928612;29;19923;-86
2022/03/02 10:36:12;;;;;;;;;;;5.80;95.90;;;;;;4932591;29;20063;-84
2022/03/02 10:38:58;;;;;;;;;;;5.80;96.00;;;;;;4919141;29;19918;-85
2022/03/02 10:41:25;;;;;;;;;;;5.90;96.20;;;;;;4918809;29;19915;-84
2022/03/02 10:43:58;;;;;;;;;;;5.90;95.60;;;;;;4948283;29;20115;-85
2022/03/02 10:46:24;;;;;;;;;;;5.80;94.80;;;;;;4898195;29;20116;-85
2022/03/02 10:49:06;;;;;;;;;;;5.70;94.60;;;;;;4946246;29;19925;-85
2022/03/02 10:51:32;;;;;;;;;;;5.60;93.60;;;;;;4910867;29;20183;-85
2022/03/02 10:54:00;;;;;;;;;;;5.50;94.30;;;;;;4931402;29;20060;-85
2022/03/02 10:56:27;;;;;;;;;;;5.60;95.40;;;;;;4930214;29;20092;-85
2022/03/02 10:58:54;;;;;;;;;;;5.50;94.40;;;;;;4917427;29;19926;-87
2022/03/02 11:01:20;;;;;;;;;;;5.40;94.10;;;;;;4929749;29;20050;-86
2022/03/02 11:03:46;;;;;;;;;;;5.50;95.40;;;;;;4916079;29;20634;-84
2022/03/02 11:06:12;;;;;;;;;;;5.60;95.20;;;;;;4916507;29;19922;-84
2022/03/02 11:08:38;;;;;;;;;;;5.70;96.00;;;;;;4929089;29;19919;-87
2022/03/02 11:11:07;;;;;;;;;;;5.80;94.80;;;;;;4913599;29;19922;-85
2022/03/02 11:13:33;;;;;;;;;;;5.80;95.00;;;;;;4894940;29;20295;-87
2022/03/02 11:16:00;;;;;;;;;;;6.00;94.80;;;;;;4910020;29;19922;-85
2022/03/02 11:18:34;;;;;;;;;;;6.30;93.80;;;;;;4896833;29;20045;-84
2022/03/02 11:21:02;;;;;;;;;;;6.00;92.40;;;;;;4911341;29;19926;-85
2022/03/02 11:23:31;;;;;;;;;;;5.80;93.10;;;;;;4895339;29;19912;-85
2022/03/02 11:26:03;;;;;;;;;;;5.80;93.50;;;;;;4910574;29;19978;-84
2022/03/02 11:28:28;;;;;;;;;;;5.70;94.40;;;;;;4895077;29;20360;-84
2022/03/02 11:30:55;;;;;;;;;;;5.60;93.40;;;;;;4895472;29;20060;-85
2022/03/02 11:33:23;;;;;;;;;;;5.70;94.40;;;;;;4895581;29;20360;-87
2022/03/02 11:35:50;;;;;;;;;;;5.80;93.90;;;;;;4895117;29;19943;-86
2022/03/02 11:38:20;;;;;;;;;;;6.00;94.20;;;;;;4911057;29;20312;-86
2022/03/02 11:40:48;;;;;;;;;;;6.40;94.50;;;;;;4935360;29;20038;-86
2022/03/02 11:43:19;;;;;;;;;;;6.70;94.20;;;;;;4949715;29;20056;-86
2022/03/02 11:45:56;;;;;;;;;;;7.10;93.70;;;;;;4916668;29;20046;-86
2022/03/02 11:48:28;;;;;;;;;;;7.10;92.70;;;;;;4917344;29;20025;-85
2022/03/02 11:50:59;;;;;;;;;;;7.00;92.20;;;;;;4915502;29;20005;-86
2022/03/02 11:53:32;;;;;;;;;;;7.00;91.40;;;;;;4931178;29;20382;-85
2022/03/02 11:55:59;;;;;;;;;;;7.10;91.90;;;;;;4930364;29;19911;-86
2022/03/02 11:58:26;;;;;;;;;;;7.20;91.40;;;;;;4930653;29;20052;-85
2022/03/02 12:00:58;;;;;;;;;;;7.20;92.30;;;;;;4926891;29;19919;-86
2022/03/02 12:03:23;;;;;;;;;;;7.10;92.70;;;;;;4903267;29;20053;-85
2022/03/02 12:06:03;;;;;;;;;;;7.10;92.20;;;;;;4914868;29;20011;-86
2022/03/02 12:08:32;;;;;;;;;;;7.00;92.80;;;;;;4914118;29;20085;-86
2022/03/02 12:11:01;;;;;;;;;;;6.80;91.80;;;;;;4914149;29;20486;-85
2022/03/02 12:13:27;;;;;;;;;;;7.00;92.80;;;;;;4929883;29;19931;-87
2022/03/02 12:15:55;;;;;;;;;;;7.10;92.60;;;;;;4913669;29;20048;-86
2022/03/02 12:18:21;;;;;;;;;;;7.30;91.10;;;;;;4929496;29;19970;-87
2022/03/02 12:20:48;;;;;;;;;;;7.20;91.70;;;;;;4929485;29;20111;-87
2022/03/02 12:23:21;;;;;;;;;;;7.10;92.00;;;;;;4929675;29;20082;-85
2022/03/02 12:25:47;;;;;;;;;;;7.10;91.70;;;;;;4927520;29;20296;-87
2022/03/02 12:28:13;;;;;;;;;;;7.10;91.70;;;;;;4913791;29;19915;-86
2022/03/02 12:30:39;;;;;;;;;;;7.10;91.20;;;;;;4916602;29;19915;-86
2022/03/02 12:33:05;;;;;;;;;;;7.10;92.30;;;;;;4929344;29;19938;-86
2022/03/02 12:35:31;;;;;;;;;;;7.20;92.40;;;;;;4912990;29;20052;-85
2022/03/02 12:37:59;;;;;;;;;;;7.20;91.80;;;;;;4931157;29;20379;-86
2022/03/02 12:40:28;;;;;;;;;;;7.20;91.80;;;;;;4930285;29;19915;-87
2022/03/02 12:42:54;;;;;;;;;;;7.20;91.90;;;;;;4916861;29;19915;-85
2022/03/02 12:45:20;;;;;;;;;;;7.10;90.90;;;;;;4916596;29;20434;-85
2022/03/02 12:47:46;;;;;;;;;;;7.00;90.10;;;;;;4932169;29;19915;-87
2022/03/02 12:50:13;;;;;;;;;;;6.90;90.90;;;;;;4916117;29;19915;-87
2022/03/02 12:52:39;;;;;;;;;;;7.10;91.20;;;;;;4915266;29;19911;-88
2022/03/02 12:55:05;;;;;;;;;;;7.10;90.90;;;;;;4916022;29;20371;-86
2022/03/02 12:57:31;;;;;;;;;;;7.10;90.30;;;;;;4916311;29;20076;-85
2022/03/02 12:59:58;;;;;;;;;;;7.30;90.30;;;;;;4920457;29;20142;-86
2022/03/02 13:02:27;;;;;;;;;;;7.40;90.90;;;;;;4946093;29;19922;-86
2022/03/02 13:04:56;;;;;;;;;;;7.60;90.20;;;;;;4933665;29;19908;-86
2022/03/02 13:07:40;;;;;;;;;;;7.60;90.50;;;;;;4928656;29;19915;-85
2022/03/02 13:10:07;;;;;;;;;;;7.60;89.90;;;;;;4942920;29;20038;-86
2022/03/02 13:12:38;;;;;;;;;;;7.40;89.90;;;;;;4917378;29;19907;-85
2022/03/02 13:15:32;;;;;;;;;;;7.10;88.50;;;;;;4948628;29;19975;-85
2022/03/02 13:18:07;;;;;;;;;;;7.20;88.90;;;;;;4931473;29;19927;-86
2022/03/02 13:20:33;;;;;;;;;;;7.20;87.60;;;;;;4966640;29;20120;-86
2022/03/02 13:23:16;;;;;;;;;;;7.20;87.40;;;;;;4954157;29;20057;-85
2022/03/02 13:26:01;;;;;;;;;;;7.00;84.50;;;;;;4945552;28;20049;-86
2022/03/02 13:28:28;;;;;;;;;;;6.60;84.10;;;;;;4911932;29;19925;-85
2022/03/02 13:31:17;;;;;;;;;;;6.50;86.30;;;;;;4931367;29;20048;-85
2022/03/02 13:33:58;;;;;;;;;;;6.40;86.50;;;;;;4931341;29;19994;-86
2022/03/02 13:36:34;;;;;;;;;;;6.60;87.90;;;;;;4947442;29;19915;-86
2022/03/02 13:39:16;;;;;;;;;;;6.60;85.40;;;;;;4931160;29;20053;-85
2022/03/02 13:41:51;;;;;;;;;;;6.70;83.80;;;;;;4934748;29;19950;-86
2022/03/02 13:44:20;;;;;;;;;;;6.60;83.80;;;;;;4947702;29;20010;-85
2022/03/02 13:47:07;;;;;;;;;;;6.50;84.10;;;;;;4946081;29;19911;-85
2022/03/02 13:49:54;;;;;;;;;;;6.30;85.20;;;;;;4915145;29;19962;-86
2022/03/02 13:52:26;;;;;;;;;;;6.40;87.90;;;;;;4947087;29;19919;-85
2022/03/02 13:54:52;;;;;;;;;;;6.50;87.60;;;;;;4946861;29;20057;-85
2022/03/02 13:57:19;;;;;;;;;;;6.60;86.50;;;;;;4916569;29;19915;-85
2022/03/02 13:59:45;;;;;;;;;;;6.50;82.70;;;;;;4930915;29;20091;-86
2022/03/02 14:02:11;;;;;;;;;;;6.50;84.00;;;;;;4931159;29;20155;-85
2022/03/02 14:04:47;;;;;;;;;;;6.50;85.30;;;;;;4931512;29;20053;-85
2022/03/02 14:07:13;;;;;;;;;;;6.50;84.60;;;;;;4930995;29;20538;-86
2022/03/02 14:09:39;;;;;;;;;;;6.50;86.40;;;;;;4930826;29;24149;-86